sensor_id;sensor_type;location;lat;lon;timestamp;P1;durP1;ratioP1;P2;durP2;ratioP2
11082;SDS011;5595;50.186;8.468;2024-02-21T00:00:17;6.43;;;2.07;;
11082;SDS011;5595;50.186;8.468;2024-02-21T00:02:46;5.33;;;1.73;;
11082;SDS011;5595;50.186;8.468;2024-02-21T00:05:13;5.10;;;1.60;;
11082;SDS011;5595;50.186;8.468;2024-02-21T00:07:40;5.03;;;1.70;;
11082;SDS011;5595;50.186;8.468;2024-02-21T00:10:07;6.90;;;2.20;;
11082;SDS011;5595;50.186;8.468;2024-02-21T00:12:34;5.67;;;2.00;;
11082;SDS011;5595;50.186;8.468;2024-02-21T00:15:01;6.13;;;1.63;;
11082;SDS011;5595;50.186;8.468;2024-02-21T00:17:27;3.80;;;1.47;;
11082;SDS011;5595;50.186;8.468;2024-02-21T00:19:56;3.33;;;1.17;;
11082;SDS011;5595;50.186;8.468;2024-02-21T00:22:22;3.00;;;1.47;;
11082;SDS011;5595;50.186;8.468;2024-02-21T00:24:49;13.17;;;1.80;;
11082;SDS011;5595;50.186;8.468;2024-02-21T00:27:16;3.67;;;1.67;;
11082;SDS011;5595;50.186;8.468;2024-02-21T00:29:43;9.00;;;1.90;;
11082;SDS011;5595;50.186;8.468;2024-02-21T00:32:10;2.97;;;1.77;;
11082;SDS011;5595;50.186;8.468;2024-02-21T00:34:36;6.10;;;2.00;;
11082;SDS011;5595;50.186;8.468;2024-02-21T00:37:04;3.53;;;1.47;;
11082;SDS011;5595;50.186;8.468;2024-02-21T00:39:32;9.93;;;1.97;;
11082;SDS011;5595;50.186;8.468;2024-02-21T00:41:58;5.30;;;1.80;;
11082;SDS011;5595;50.186;8.468;2024-02-21T00:44:25;14.47;;;2.50;;
11082;SDS011;5595;50.186;8.468;2024-02-21T00:46:52;9.53;;;1.97;;
11082;SDS011;5595;50.186;8.468;2024-02-21T00:49:19;6.03;;;1.70;;
11082;SDS011;5595;50.186;8.468;2024-02-21T00:51:46;3.70;;;1.87;;
11082;SDS011;5595;50.186;8.468;2024-02-21T00:54:14;4.53;;;1.63;;
11082;SDS011;5595;50.186;8.468;2024-02-21T00:56:42;9.20;;;2.00;;
11082;SDS011;5595;50.186;8.468;2024-02-21T00:59:09;3.67;;;1.63;;
11082;SDS011;5595;50.186;8.468;2024-02-21T01:01:36;6.73;;;2.03;;
11082;SDS011;5595;50.186;8.468;2024-02-21T01:04:02;7.63;;;2.10;;
11082;SDS011;5595;50.186;8.468;2024-02-21T01:06:29;7.50;;;1.60;;
11082;SDS011;5595;50.186;8.468;2024-02-21T01:08:56;3.60;;;1.80;;
11082;SDS011;5595;50.186;8.468;2024-02-21T01:11:24;7.10;;;2.00;;
11082;SDS011;5595;50.186;8.468;2024-02-21T01:13:51;6.67;;;2.30;;
11082;SDS011;5595;50.186;8.468;2024-02-21T01:16:18;5.67;;;1.70;;
11082;SDS011;5595;50.186;8.468;2024-02-21T01:18:45;8.13;;;2.53;;
11082;SDS011;5595;50.186;8.468;2024-02-21T01:21:11;7.13;;;2.20;;
11082;SDS011;5595;50.186;8.468;2024-02-21T01:23:38;5.33;;;2.30;;
11082;SDS011;5595;50.186;8.468;2024-02-21T01:26:05;5.20;;;2.33;;
11082;SDS011;5595;50.186;8.468;2024-02-21T01:28:34;4.13;;;1.90;;
11082;SDS011;5595;50.186;8.468;2024-02-21T01:31:02;5.77;;;2.07;;
11082;SDS011;5595;50.186;8.468;2024-02-21T01:33:29;5.07;;;2.33;;
11082;SDS011;5595;50.186;8.468;2024-02-21T01:35:59;5.27;;;2.00;;
11082;SDS011;5595;50.186;8.468;2024-02-21T01:38:26;4.03;;;2.40;;
11082;SDS011;5595;50.186;8.468;2024-02-21T01:40:53;3.70;;;2.23;;
11082;SDS011;5595;50.186;8.468;2024-02-21T01:43:21;6.87;;;1.93;;
11082;SDS011;5595;50.186;8.468;2024-02-21T01:45:50;5.23;;;1.90;;
11082;SDS011;5595;50.186;8.468;2024-02-21T01:48:18;4.87;;;2.00;;
11082;SDS011;5595;50.186;8.468;2024-02-21T01:50:45;9.10;;;2.10;;
11082;SDS011;5595;50.186;8.468;2024-02-21T01:53:12;8.50;;;2.83;;
11082;SDS011;5595;50.186;8.468;2024-02-21T01:55:46;6.20;;;1.70;;
11082;SDS011;5595;50.186;8.468;2024-02-21T01:58:13;11.43;;;2.90;;
11082;SDS011;5595;50.186;8.468;2024-02-21T02:00:41;6.13;;;2.30;;
11082;SDS011;5595;50.186;8.468;2024-02-21T02:03:12;6.60;;;2.07;;
11082;SDS011;5595;50.186;8.468;2024-02-21T02:05:42;8.10;;;2.20;;
11082;SDS011;5595;50.186;8.468;2024-02-21T02:08:09;9.03;;;2.07;;
11082;SDS011;5595;50.186;8.468;2024-02-21T02:10:36;5.30;;;2.33;;
11082;SDS011;5595;50.186;8.468;2024-02-21T02:13:04;5.37;;;2.20;;
11082;SDS011;5595;50.186;8.468;2024-02-21T02:15:37;6.17;;;2.17;;
11082;SDS011;5595;50.186;8.468;2024-02-21T02:18:04;5.33;;;2.10;;
11082;SDS011;5595;50.186;8.468;2024-02-21T02:20:32;5.60;;;2.30;;
11082;SDS011;5595;50.186;8.468;2024-02-21T02:23:00;5.80;;;2.07;;
11082;SDS011;5595;50.186;8.468;2024-02-21T02:25:32;2.70;;;1.60;;
11082;SDS011;5595;50.186;8.468;2024-02-21T02:27:59;4.70;;;2.00;;
11082;SDS011;5595;50.186;8.468;2024-02-21T02:30:26;4.93;;;2.43;;
11082;SDS011;5595;50.186;8.468;2024-02-21T02:32:53;8.17;;;2.17;;
11082;SDS011;5595;50.186;8.468;2024-02-21T02:35:20;5.50;;;1.90;;
11082;SDS011;5595;50.186;8.468;2024-02-21T02:37:49;5.77;;;2.33;;
11082;SDS011;5595;50.186;8.468;2024-02-21T02:40:16;8.97;;;2.03;;
11082;SDS011;5595;50.186;8.468;2024-02-21T02:42:44;8.43;;;2.40;;
11082;SDS011;5595;50.186;8.468;2024-02-21T02:45:13;8.20;;;2.10;;
11082;SDS011;5595;50.186;8.468;2024-02-21T02:47:39;6.87;;;1.97;;
11082;SDS011;5595;50.186;8.468;2024-02-21T02:50:07;3.83;;;2.20;;
11082;SDS011;5595;50.186;8.468;2024-02-21T02:52:34;8.47;;;2.20;;
11082;SDS011;5595;50.186;8.468;2024-02-21T02:55:01;5.33;;;1.90;;
11082;SDS011;5595;50.186;8.468;2024-02-21T02:57:28;5.63;;;2.20;;
11082;SDS011;5595;50.186;8.468;2024-02-21T02:59:56;4.07;;;1.93;;
11082;SDS011;5595;50.186;8.468;2024-02-21T03:02:23;4.87;;;2.13;;
11082;SDS011;5595;50.186;8.468;2024-02-21T03:04:50;4.80;;;1.67;;
11082;SDS011;5595;50.186;8.468;2024-02-21T03:07:17;4.77;;;2.40;;
11082;SDS011;5595;50.186;8.468;2024-02-21T03:09:43;5.93;;;1.70;;
11082;SDS011;5595;50.186;8.468;2024-02-21T03:12:10;6.67;;;1.90;;
11082;SDS011;5595;50.186;8.468;2024-02-21T03:14:37;8.80;;;1.83;;
11082;SDS011;5595;50.186;8.468;2024-02-21T03:17:05;8.53;;;2.30;;
11082;SDS011;5595;50.186;8.468;2024-02-21T03:19:32;5.43;;;2.10;;
11082;SDS011;5595;50.186;8.468;2024-02-21T03:21:58;5.43;;;2.00;;
11082;SDS011;5595;50.186;8.468;2024-02-21T03:24:25;5.57;;;2.37;;
11082;SDS011;5595;50.186;8.468;2024-02-21T03:26:52;3.93;;;2.03;;
11082;SDS011;5595;50.186;8.468;2024-02-21T03:29:19;7.63;;;2.47;;
11082;SDS011;5595;50.186;8.468;2024-02-21T03:31:45;5.30;;;2.50;;
11082;SDS011;5595;50.186;8.468;2024-02-21T03:34:13;10.37;;;2.67;;
11082;SDS011;5595;50.186;8.468;2024-02-21T03:36:40;3.50;;;2.30;;
11082;SDS011;5595;50.186;8.468;2024-02-21T03:39:07;4.40;;;2.70;;
11082;SDS011;5595;50.186;8.468;2024-02-21T03:41:34;3.17;;;1.93;;
11082;SDS011;5595;50.186;8.468;2024-02-21T03:44:01;5.57;;;2.00;;
11082;SDS011;5595;50.186;8.468;2024-02-21T03:46:27;10.33;;;2.53;;
11082;SDS011;5595;50.186;8.468;2024-02-21T03:48:54;5.07;;;2.37;;
11082;SDS011;5595;50.186;8.468;2024-02-21T03:51:22;7.93;;;2.43;;
11082;SDS011;5595;50.186;8.468;2024-02-21T03:53:49;4.87;;;1.73;;
11082;SDS011;5595;50.186;8.468;2024-02-21T03:56:16;7.10;;;2.47;;
11082;SDS011;5595;50.186;8.468;2024-02-21T03:58:43;7.80;;;2.53;;
11082;SDS011;5595;50.186;8.468;2024-02-21T04:01:09;6.00;;;2.37;;
11082;SDS011;5595;50.186;8.468;2024-02-21T04:03:37;10.37;;;2.30;;
11082;SDS011;5595;50.186;8.468;2024-02-21T04:06:04;8.27;;;2.73;;
11082;SDS011;5595;50.186;8.468;2024-02-21T04:08:32;6.47;;;2.60;;
11082;SDS011;5595;50.186;8.468;2024-02-21T04:10:59;9.20;;;2.10;;
11082;SDS011;5595;50.186;8.468;2024-02-21T04:13:25;5.73;;;2.50;;
11082;SDS011;5595;50.186;8.468;2024-02-21T04:15:52;4.57;;;1.90;;
11082;SDS011;5595;50.186;8.468;2024-02-21T04:18:19;5.57;;;2.10;;
11082;SDS011;5595;50.186;8.468;2024-02-21T04:20:46;4.43;;;2.07;;
11082;SDS011;5595;50.186;8.468;2024-02-21T04:23:13;9.37;;;2.23;;
11082;SDS011;5595;50.186;8.468;2024-02-21T04:25:42;4.67;;;2.23;;
11082;SDS011;5595;50.186;8.468;2024-02-21T04:28:09;9.20;;;2.07;;
11082;SDS011;5595;50.186;8.468;2024-02-21T04:30:36;5.97;;;2.37;;
11082;SDS011;5595;50.186;8.468;2024-02-21T04:33:03;6.53;;;2.47;;
11082;SDS011;5595;50.186;8.468;2024-02-21T04:35:30;5.47;;;2.27;;
11082;SDS011;5595;50.186;8.468;2024-02-21T04:37:56;11.70;;;2.50;;
11082;SDS011;5595;50.186;8.468;2024-02-21T04:40:23;5.83;;;2.33;;
11082;SDS011;5595;50.186;8.468;2024-02-21T04:42:51;6.83;;;2.30;;
11082;SDS011;5595;50.186;8.468;2024-02-21T04:45:18;6.60;;;2.93;;
11082;SDS011;5595;50.186;8.468;2024-02-21T04:47:45;11.03;;;2.83;;
11082;SDS011;5595;50.186;8.468;2024-02-21T04:50:12;7.87;;;2.13;;
11082;SDS011;5595;50.186;8.468;2024-02-21T04:52:38;4.57;;;2.17;;
11082;SDS011;5595;50.186;8.468;2024-02-21T04:55:05;9.43;;;2.80;;
11082;SDS011;5595;50.186;8.468;2024-02-21T04:57:33;9.80;;;2.50;;
11082;SDS011;5595;50.186;8.468;2024-02-21T05:00:01;8.03;;;2.20;;
11082;SDS011;5595;50.186;8.468;2024-02-21T05:02:28;5.97;;;2.20;;
11082;SDS011;5595;50.186;8.468;2024-02-21T05:04:55;8.50;;;2.60;;
11082;SDS011;5595;50.186;8.468;2024-02-21T05:07:22;6.67;;;2.60;;
11082;SDS011;5595;50.186;8.468;2024-02-21T05:09:49;4.90;;;2.07;;
11082;SDS011;5595;50.186;8.468;2024-02-21T05:12:15;9.23;;;2.30;;
11082;SDS011;5595;50.186;8.468;2024-02-21T05:14:42;8.20;;;2.90;;
11082;SDS011;5595;50.186;8.468;2024-02-21T05:17:10;3.50;;;1.97;;
11082;SDS011;5595;50.186;8.468;2024-02-21T05:19:37;7.67;;;2.87;;
11082;SDS011;5595;50.186;8.468;2024-02-21T05:22:04;5.07;;;2.53;;
11082;SDS011;5595;50.186;8.468;2024-02-21T05:24:31;11.13;;;2.90;;
11082;SDS011;5595;50.186;8.468;2024-02-21T05:26:57;8.00;;;2.53;;
11082;SDS011;5595;50.186;8.468;2024-02-21T05:29:24;3.40;;;2.03;;
11082;SDS011;5595;50.186;8.468;2024-02-21T05:31:54;6.20;;;2.80;;
11082;SDS011;5595;50.186;8.468;2024-02-21T05:34:23;4.70;;;2.40;;
11082;SDS011;5595;50.186;8.468;2024-02-21T05:36:51;7.63;;;3.17;;
11082;SDS011;5595;50.186;8.468;2024-02-21T05:39:18;5.40;;;2.50;;
11082;SDS011;5595;50.186;8.468;2024-02-21T05:41:45;7.80;;;2.73;;
11082;SDS011;5595;50.186;8.468;2024-02-21T05:44:11;8.20;;;3.33;;
11082;SDS011;5595;50.186;8.468;2024-02-21T05:46:38;7.97;;;2.83;;
11082;SDS011;5595;50.186;8.468;2024-02-21T05:49:05;11.70;;;3.27;;
11082;SDS011;5595;50.186;8.468;2024-02-21T05:51:34;6.73;;;2.87;;
11082;SDS011;5595;50.186;8.468;2024-02-21T05:54:01;9.37;;;3.00;;
11082;SDS011;5595;50.186;8.468;2024-02-21T05:56:28;7.63;;;2.67;;
11082;SDS011;5595;50.186;8.468;2024-02-21T05:58:55;5.23;;;2.70;;
11082;SDS011;5595;50.186;8.468;2024-02-21T06:01:21;8.83;;;2.57;;
11082;SDS011;5595;50.186;8.468;2024-02-21T06:03:48;6.77;;;2.63;;
11082;SDS011;5595;50.186;8.468;2024-02-21T06:06:15;4.33;;;2.50;;
11082;SDS011;5595;50.186;8.468;2024-02-21T06:08:43;6.10;;;2.73;;
11082;SDS011;5595;50.186;8.468;2024-02-21T06:11:10;7.33;;;2.73;;
11082;SDS011;5595;50.186;8.468;2024-02-21T06:13:37;9.17;;;3.27;;
11082;SDS011;5595;50.186;8.468;2024-02-21T06:16:05;7.10;;;2.67;;
11082;SDS011;5595;50.186;8.468;2024-02-21T06:18:34;8.23;;;2.90;;
11082;SDS011;5595;50.186;8.468;2024-02-21T06:21:02;5.23;;;2.60;;
11082;SDS011;5595;50.186;8.468;2024-02-21T06:23:29;10.10;;;2.60;;
11082;SDS011;5595;50.186;8.468;2024-02-21T06:25:57;11.37;;;2.57;;
11082;SDS011;5595;50.186;8.468;2024-02-21T06:28:24;4.93;;;2.87;;
11082;SDS011;5595;50.186;8.468;2024-02-21T06:30:51;9.30;;;2.30;;
11082;SDS011;5595;50.186;8.468;2024-02-21T06:33:18;4.77;;;2.37;;
11082;SDS011;5595;50.186;8.468;2024-02-21T06:35:47;10.03;;;3.30;;
11082;SDS011;5595;50.186;8.468;2024-02-21T06:38:17;8.10;;;2.57;;
11082;SDS011;5595;50.186;8.468;2024-02-21T06:40:44;5.47;;;2.43;;
11082;SDS011;5595;50.186;8.468;2024-02-21T06:43:16;10.87;;;3.13;;
11082;SDS011;5595;50.186;8.468;2024-02-21T06:45:44;7.83;;;2.87;;
11082;SDS011;5595;50.186;8.468;2024-02-21T06:48:12;5.87;;;2.73;;
11082;SDS011;5595;50.186;8.468;2024-02-21T06:50:39;4.27;;;2.60;;
11082;SDS011;5595;50.186;8.468;2024-02-21T06:53:06;7.33;;;2.97;;
11082;SDS011;5595;50.186;8.468;2024-02-21T06:55:33;8.87;;;2.97;;
11082;SDS011;5595;50.186;8.468;2024-02-21T06:58:00;8.30;;;2.80;;
11082;SDS011;5595;50.186;8.468;2024-02-21T07:00:28;6.97;;;2.77;;
11082;SDS011;5595;50.186;8.468;2024-02-21T07:02:55;5.80;;;2.40;;
11082;SDS011;5595;50.186;8.468;2024-02-21T07:05:23;9.23;;;3.23;;
11082;SDS011;5595;50.186;8.468;2024-02-21T07:07:49;7.00;;;2.73;;
11082;SDS011;5595;50.186;8.468;2024-02-21T07:10:16;11.20;;;3.20;;
11082;SDS011;5595;50.186;8.468;2024-02-21T07:12:43;4.47;;;2.27;;
11082;SDS011;5595;50.186;8.468;2024-02-21T07:15:10;6.37;;;3.00;;
11082;SDS011;5595;50.186;8.468;2024-02-21T07:17:38;7.43;;;2.50;;
11082;SDS011;5595;50.186;8.468;2024-02-21T07:20:05;7.77;;;3.17;;
11082;SDS011;5595;50.186;8.468;2024-02-21T07:22:32;7.00;;;3.13;;
11082;SDS011;5595;50.186;8.468;2024-02-21T07:24:59;8.90;;;2.60;;
11082;SDS011;5595;50.186;8.468;2024-02-21T07:27:26;9.57;;;2.70;;
11082;SDS011;5595;50.186;8.468;2024-02-21T07:29:55;8.17;;;3.60;;
11082;SDS011;5595;50.186;8.468;2024-02-21T07:32:22;5.50;;;2.87;;
11082;SDS011;5595;50.186;8.468;2024-02-21T07:34:50;4.23;;;2.77;;
11082;SDS011;5595;50.186;8.468;2024-02-21T07:37:17;9.70;;;3.63;;
11082;SDS011;5595;50.186;8.468;2024-02-21T07:39:44;6.17;;;3.13;;
11082;SDS011;5595;50.186;8.468;2024-02-21T07:42:11;7.10;;;3.73;;
11082;SDS011;5595;50.186;8.468;2024-02-21T07:44:37;7.60;;;4.07;;
11082;SDS011;5595;50.186;8.468;2024-02-21T07:47:04;6.97;;;4.07;;
11082;SDS011;5595;50.186;8.468;2024-02-21T07:49:32;7.07;;;4.03;;
11082;SDS011;5595;50.186;8.468;2024-02-21T07:52:01;8.27;;;3.73;;
11082;SDS011;5595;50.186;8.468;2024-02-21T07:54:28;9.87;;;4.20;;
11082;SDS011;5595;50.186;8.468;2024-02-21T07:56:55;9.87;;;4.20;;
11082;SDS011;5595;50.186;8.468;2024-02-21T07:59:21;11.90;;;4.07;;
11082;SDS011;5595;50.186;8.468;2024-02-21T08:01:48;5.63;;;3.37;;
11082;SDS011;5595;50.186;8.468;2024-02-21T08:04:15;6.63;;;4.07;;
11082;SDS011;5595;50.186;8.468;2024-02-21T08:06:42;8.00;;;4.07;;
11082;SDS011;5595;50.186;8.468;2024-02-21T08:09:11;6.17;;;3.57;;
11082;SDS011;5595;50.186;8.468;2024-02-21T08:11:38;10.23;;;3.73;;
11082;SDS011;5595;50.186;8.468;2024-02-21T08:14:05;11.53;;;3.97;;
11082;SDS011;5595;50.186;8.468;2024-02-21T08:16:33;8.73;;;3.70;;
11082;SDS011;5595;50.186;8.468;2024-02-21T08:18:59;10.40;;;3.30;;
11082;SDS011;5595;50.186;8.468;2024-02-21T08:21:28;6.40;;;3.87;;
11082;SDS011;5595;50.186;8.468;2024-02-21T08:23:55;6.73;;;3.87;;
11082;SDS011;5595;50.186;8.468;2024-02-21T08:26:23;6.97;;;3.93;;
11082;SDS011;5595;50.186;8.468;2024-02-21T08:28:52;7.00;;;3.77;;
11082;SDS011;5595;50.186;8.468;2024-02-21T08:31:19;7.00;;;3.80;;
11082;SDS011;5595;50.186;8.468;2024-02-21T08:33:48;9.20;;;3.97;;
11082;SDS011;5595;50.186;8.468;2024-02-21T08:36:17;9.43;;;3.67;;
11082;SDS011;5595;50.186;8.468;2024-02-21T08:38:45;7.40;;;2.93;;
11082;SDS011;5595;50.186;8.468;2024-02-21T08:41:12;8.67;;;3.57;;
11082;SDS011;5595;50.186;8.468;2024-02-21T08:43:40;6.73;;;3.10;;
11082;SDS011;5595;50.186;8.468;2024-02-21T08:46:06;7.00;;;3.07;;
11082;SDS011;5595;50.186;8.468;2024-02-21T08:48:33;7.13;;;3.13;;
11082;SDS011;5595;50.186;8.468;2024-02-21T08:51:00;6.93;;;2.83;;
11082;SDS011;5595;50.186;8.468;2024-02-21T08:53:27;17.63;;;3.40;;
11082;SDS011;5595;50.186;8.468;2024-02-21T08:55:54;9.30;;;2.73;;
11082;SDS011;5595;50.186;8.468;2024-02-21T08:58:20;8.43;;;3.13;;
11082;SDS011;5595;50.186;8.468;2024-02-21T09:00:49;9.07;;;2.73;;
11082;SDS011;5595;50.186;8.468;2024-02-21T09:03:17;10.17;;;3.33;;
11082;SDS011;5595;50.186;8.468;2024-02-21T09:05:45;4.47;;;3.00;;
11082;SDS011;5595;50.186;8.468;2024-02-21T09:08:12;5.93;;;2.80;;
11082;SDS011;5595;50.186;8.468;2024-02-21T09:10:39;7.43;;;3.33;;
11082;SDS011;5595;50.186;8.468;2024-02-21T09:13:06;9.50;;;3.50;;
11082;SDS011;5595;50.186;8.468;2024-02-21T09:15:33;10.43;;;3.07;;
11082;SDS011;5595;50.186;8.468;2024-02-21T09:18:01;7.80;;;3.10;;
11082;SDS011;5595;50.186;8.468;2024-02-21T09:20:29;9.57;;;3.97;;
11082;SDS011;5595;50.186;8.468;2024-02-21T09:22:56;6.90;;;3.73;;
11082;SDS011;5595;50.186;8.468;2024-02-21T09:25:23;11.13;;;3.63;;
11082;SDS011;5595;50.186;8.468;2024-02-21T09:27:49;10.30;;;3.57;;
11082;SDS011;5595;50.186;8.468;2024-02-21T09:30:17;11.90;;;3.97;;
11082;SDS011;5595;50.186;8.468;2024-02-21T09:32:45;7.70;;;3.83;;
11082;SDS011;5595;50.186;8.468;2024-02-21T09:35:13;9.27;;;3.93;;
11082;SDS011;5595;50.186;8.468;2024-02-21T09:37:40;7.97;;;4.70;;
11082;SDS011;5595;50.186;8.468;2024-02-21T09:40:07;5.80;;;3.67;;
11082;SDS011;5595;50.186;8.468;2024-02-21T09:42:36;8.87;;;4.73;;
11082;SDS011;5595;50.186;8.468;2024-02-21T09:45:07;9.70;;;4.40;;
11082;SDS011;5595;50.186;8.468;2024-02-21T09:47:38;10.93;;;4.47;;
11082;SDS011;5595;50.186;8.468;2024-02-21T09:50:10;12.70;;;4.83;;
11082;SDS011;5595;50.186;8.468;2024-02-21T09:52:38;12.03;;;4.63;;
11082;SDS011;5595;50.186;8.468;2024-02-21T09:55:06;8.97;;;4.70;;
11082;SDS011;5595;50.186;8.468;2024-02-21T09:57:35;8.60;;;4.60;;
11082;SDS011;5595;50.186;8.468;2024-02-21T10:00:03;10.40;;;4.30;;
11082;SDS011;5595;50.186;8.468;2024-02-21T10:02:33;13.70;;;4.90;;
11082;SDS011;5595;50.186;8.468;2024-02-21T10:04:59;9.97;;;3.77;;
11082;SDS011;5595;50.186;8.468;2024-02-21T10:07:28;8.43;;;4.23;;
11082;SDS011;5595;50.186;8.468;2024-02-21T10:10:01;7.40;;;3.67;;
11082;SDS011;5595;50.186;8.468;2024-02-21T10:12:28;9.07;;;3.40;;
11082;SDS011;5595;50.186;8.468;2024-02-21T10:14:59;10.33;;;3.53;;
11082;SDS011;5595;50.186;8.468;2024-02-21T10:17:27;6.93;;;3.50;;
11082;SDS011;5595;50.186;8.468;2024-02-21T10:19:53;7.32;;;3.13;;
11082;SDS011;5595;50.186;8.468;2024-02-21T10:22:20;6.57;;;3.45;;
11082;SDS011;5595;50.186;8.468;2024-02-21T10:24:48;10.73;;;3.03;;
11082;SDS011;5595;50.186;8.468;2024-02-21T10:27:16;7.20;;;3.30;;
11082;SDS011;5595;50.186;8.468;2024-02-21T10:29:43;7.53;;;3.35;;
11082;SDS011;5595;50.186;8.468;2024-02-21T10:32:16;4.63;;;2.67;;
11082;SDS011;5595;50.186;8.468;2024-02-21T10:34:43;7.90;;;3.03;;
11082;SDS011;5595;50.186;8.468;2024-02-21T10:37:11;7.93;;;2.97;;
11082;SDS011;5595;50.186;8.468;2024-02-21T10:39:38;8.13;;;2.85;;
11082;SDS011;5595;50.186;8.468;2024-02-21T10:42:06;6.40;;;2.90;;
11082;SDS011;5595;50.186;8.468;2024-02-21T10:44:38;4.00;;;1.73;;
11082;SDS011;5595;50.186;8.468;2024-02-21T10:47:07;3.73;;;2.60;;
11082;SDS011;5595;50.186;8.468;2024-02-21T10:49:35;7.83;;;2.93;;
11082;SDS011;5595;50.186;8.468;2024-02-21T10:52:06;5.90;;;2.83;;
11082;SDS011;5595;50.186;8.468;2024-02-21T10:54:43;7.30;;;2.93;;
11082;SDS011;5595;50.186;8.468;2024-02-21T10:57:12;7.20;;;2.93;;
11082;SDS011;5595;50.186;8.468;2024-02-21T10:59:41;4.90;;;2.70;;
11082;SDS011;5595;50.186;8.468;2024-02-21T11:02:10;8.87;;;2.30;;
11082;SDS011;5595;50.186;8.468;2024-02-21T11:04:37;5.10;;;2.50;;
11082;SDS011;5595;50.186;8.468;2024-02-21T11:07:06;3.07;;;2.37;;
11082;SDS011;5595;50.186;8.468;2024-02-21T11:09:34;6.60;;;2.60;;
11082;SDS011;5595;50.186;8.468;2024-02-21T11:12:02;4.63;;;2.13;;
11082;SDS011;5595;50.186;8.468;2024-02-21T11:14:30;5.70;;;2.67;;
11082;SDS011;5595;50.186;8.468;2024-02-21T11:17:01;6.43;;;2.50;;
11082;SDS011;5595;50.186;8.468;2024-02-21T11:19:29;3.53;;;1.85;;
11082;SDS011;5595;50.186;8.468;2024-02-21T11:21:56;3.83;;;1.83;;
11082;SDS011;5595;50.186;8.468;2024-02-21T11:24:26;5.93;;;2.08;;
11082;SDS011;5595;50.186;8.468;2024-02-21T11:26:54;5.53;;;2.28;;
11082;SDS011;5595;50.186;8.468;2024-02-21T11:29:24;4.32;;;1.63;;
11082;SDS011;5595;50.186;8.468;2024-02-21T11:31:51;3.88;;;1.85;;
11082;SDS011;5595;50.186;8.468;2024-02-21T11:34:20;3.85;;;1.65;;
11082;SDS011;5595;50.186;8.468;2024-02-21T11:36:47;4.70;;;1.50;;
11082;SDS011;5595;50.186;8.468;2024-02-21T11:39:18;4.45;;;1.60;;
11082;SDS011;5595;50.186;8.468;2024-02-21T11:41:47;3.80;;;2.10;;
11082;SDS011;5595;50.186;8.468;2024-02-21T11:44:13;2.47;;;1.38;;
11082;SDS011;5595;50.186;8.468;2024-02-21T11:46:40;2.10;;;1.70;;
11082;SDS011;5595;50.186;8.468;2024-02-21T11:49:07;5.93;;;1.65;;
11082;SDS011;5595;50.186;8.468;2024-02-21T11:51:35;8.77;;;1.70;;
11082;SDS011;5595;50.186;8.468;2024-02-21T11:54:02;2.35;;;1.55;;
11082;SDS011;5595;50.186;8.468;2024-02-21T11:56:29;4.43;;;1.35;;
11082;SDS011;5595;50.186;8.468;2024-02-21T11:58:58;4.70;;;1.65;;
11082;SDS011;5595;50.186;8.468;2024-02-21T12:01:25;6.20;;;1.67;;
11082;SDS011;5595;50.186;8.468;2024-02-21T12:03:52;6.30;;;1.85;;
11082;SDS011;5595;50.186;8.468;2024-02-21T12:06:19;4.72;;;1.55;;
11082;SDS011;5595;50.186;8.468;2024-02-21T12:08:48;4.60;;;1.60;;
11082;SDS011;5595;50.186;8.468;2024-02-21T12:11:15;5.00;;;1.85;;
11082;SDS011;5595;50.186;8.468;2024-02-21T12:13:43;5.35;;;2.03;;
11082;SDS011;5595;50.186;8.468;2024-02-21T12:16:10;6.05;;;1.83;;
11082;SDS011;5595;50.186;8.468;2024-02-21T12:18:38;3.20;;;1.70;;
11082;SDS011;5595;50.186;8.468;2024-02-21T12:21:05;6.63;;;1.95;;
11082;SDS011;5595;50.186;8.468;2024-02-21T12:23:31;4.22;;;1.50;;
11082;SDS011;5595;50.186;8.468;2024-02-21T12:26:00;3.78;;;1.48;;
11082;SDS011;5595;50.186;8.468;2024-02-21T12:28:27;5.45;;;1.63;;
11082;SDS011;5595;50.186;8.468;2024-02-21T12:30:53;3.10;;;1.38;;
11082;SDS011;5595;50.186;8.468;2024-02-21T12:33:21;8.27;;;1.70;;
11082;SDS011;5595;50.186;8.468;2024-02-21T12:35:48;4.93;;;1.27;;
11082;SDS011;5595;50.186;8.468;2024-02-21T12:38:15;3.83;;;1.60;;
11082;SDS011;5595;50.186;8.468;2024-02-21T12:40:43;4.55;;;1.50;;
11082;SDS011;5595;50.186;8.468;2024-02-21T12:43:11;4.80;;;1.42;;
11082;SDS011;5595;50.186;8.468;2024-02-21T12:45:37;9.23;;;2.03;;
11082;SDS011;5595;50.186;8.468;2024-02-21T12:48:04;2.17;;;1.05;;
11082;SDS011;5595;50.186;8.468;2024-02-21T12:50:31;4.78;;;1.40;;
11082;SDS011;5595;50.186;8.468;2024-02-21T12:52:58;7.85;;;1.23;;
11082;SDS011;5595;50.186;8.468;2024-02-21T12:55:25;3.40;;;1.55;;
11082;SDS011;5595;50.186;8.468;2024-02-21T12:57:52;3.08;;;0.98;;
11082;SDS011;5595;50.186;8.468;2024-02-21T13:00:20;3.88;;;1.50;;
11082;SDS011;5595;50.186;8.468;2024-02-21T13:02:48;6.20;;;1.08;;
11082;SDS011;5595;50.186;8.468;2024-02-21T13:05:15;4.38;;;1.20;;
11082;SDS011;5595;50.186;8.468;2024-02-21T13:07:42;7.35;;;1.50;;
11082;SDS011;5595;50.186;8.468;2024-02-21T13:10:08;2.45;;;1.05;;
11082;SDS011;5595;50.186;8.468;2024-02-21T13:12:35;2.38;;;1.30;;
11082;SDS011;5595;50.186;8.468;2024-02-21T13:15:02;3.55;;;1.17;;
11082;SDS011;5595;50.186;8.468;2024-02-21T13:17:31;5.30;;;1.48;;
11082;SDS011;5595;50.186;8.468;2024-02-21T13:19:58;6.00;;;1.45;;
11082;SDS011;5595;50.186;8.468;2024-02-21T13:22:25;1.25;;;1.10;;
11082;SDS011;5595;50.186;8.468;2024-02-21T13:24:52;3.15;;;1.77;;
11082;SDS011;5595;50.186;8.468;2024-02-21T13:27:18;3.97;;;1.35;;
11082;SDS011;5595;50.186;8.468;2024-02-21T13:29:45;5.90;;;1.60;;
11082;SDS011;5595;50.186;8.468;2024-02-21T13:32:12;5.38;;;1.40;;
11082;SDS011;5595;50.186;8.468;2024-02-21T13:34:40;5.53;;;1.60;;
11082;SDS011;5595;50.186;8.468;2024-02-21T13:37:07;3.60;;;1.52;;
11082;SDS011;5595;50.186;8.468;2024-02-21T13:39:34;5.50;;;1.88;;
11082;SDS011;5595;50.186;8.468;2024-02-21T13:42:01;5.75;;;1.70;;
11082;SDS011;5595;50.186;8.468;2024-02-21T13:44:30;3.13;;;1.25;;
11082;SDS011;5595;50.186;8.468;2024-02-21T13:46:57;3.60;;;1.45;;
11082;SDS011;5595;50.186;8.468;2024-02-21T13:49:24;4.40;;;1.85;;
11082;SDS011;5595;50.186;8.468;2024-02-21T13:51:52;3.40;;;1.60;;
11082;SDS011;5595;50.186;8.468;2024-02-21T13:54:20;3.80;;;1.52;;
11082;SDS011;5595;50.186;8.468;2024-02-21T13:56:46;3.08;;;1.30;;
11082;SDS011;5595;50.186;8.468;2024-02-21T13:59:13;2.95;;;1.50;;
11082;SDS011;5595;50.186;8.468;2024-02-21T14:01:40;3.75;;;1.55;;
11082;SDS011;5595;50.186;8.468;2024-02-21T14:04:08;5.30;;;1.63;;
11082;SDS011;5595;50.186;8.468;2024-02-21T14:06:34;5.90;;;1.73;;
11082;SDS011;5595;50.186;8.468;2024-02-21T14:09:03;3.13;;;1.40;;
11082;SDS011;5595;50.186;8.468;2024-02-21T14:11:31;3.92;;;1.23;;
11082;SDS011;5595;50.186;8.468;2024-02-21T14:13:57;2.95;;;1.10;;
11082;SDS011;5595;50.186;8.468;2024-02-21T14:16:25;2.15;;;0.98;;
11082;SDS011;5595;50.186;8.468;2024-02-21T14:18:51;4.70;;;1.83;;
11082;SDS011;5595;50.186;8.468;2024-02-21T14:21:19;5.80;;;2.97;;
11082;SDS011;5595;50.186;8.468;2024-02-21T14:23:45;4.60;;;1.38;;
11082;SDS011;5595;50.186;8.468;2024-02-21T14:26:14;3.78;;;1.20;;
11082;SDS011;5595;50.186;8.468;2024-02-21T14:28:40;2.50;;;1.30;;
11082;SDS011;5595;50.186;8.468;2024-02-21T14:31:07;3.53;;;1.02;;
11082;SDS011;5595;50.186;8.468;2024-02-21T14:33:35;6.57;;;1.27;;
11082;SDS011;5595;50.186;8.468;2024-02-21T14:36:02;3.55;;;1.02;;
11082;SDS011;5595;50.186;8.468;2024-02-21T14:38:29;5.65;;;1.10;;
11082;SDS011;5595;50.186;8.468;2024-02-21T14:40:56;5.10;;;1.10;;
11082;SDS011;5595;50.186;8.468;2024-02-21T14:43:24;1.63;;;1.25;;
11082;SDS011;5595;50.186;8.468;2024-02-21T14:45:51;5.35;;;1.50;;
11082;SDS011;5595;50.186;8.468;2024-02-21T14:48:18;6.75;;;1.67;;
11082;SDS011;5595;50.186;8.468;2024-02-21T14:50:46;3.78;;;1.05;;
11082;SDS011;5595;50.186;8.468;2024-02-21T14:53:13;5.20;;;1.33;;
11082;SDS011;5595;50.186;8.468;2024-02-21T14:55:40;4.28;;;1.50;;
11082;SDS011;5595;50.186;8.468;2024-02-21T14:58:07;7.10;;;2.13;;
11082;SDS011;5595;50.186;8.468;2024-02-21T15:00:35;4.63;;;1.13;;